Time;durP1;ratioP1;P1;durP2;ratioP2;P2;SDS_P1;SDS_P2;PMS_P1;PMS_P2;Temp;Humidity;BMP_temperature;BMP_pressure;BME280_temperature;BME280_humidity;BME280_pressure;Samples;Min_cycle;Max_cycle;Signal;HPM_P1;HPM_P2
2022/01/29 00:03:42;;;;;;;21.37;7.17;;;;;;;1.39;91.26;101180.06;10539919;28;20219;-65
2022/01/29 00:08:47;;;;;;;5.00;1.43;;;;;;;1.39;91.99;101180.97;10539399;28;20245;-61
2022/01/29 00:13:50;;;;;;;7.50;1.90;;;;;;;1.35;92.54;101179.06;10539088;28;20310;-64
2022/01/29 00:18:53;;;;;;;6.07;1.63;;;;;;;1.23;93.47;101191.38;10512205;28;20227;-62
2022/01/29 00:23:58;;;;;;;6.50;1.70;;;;;;;1.24;94.16;101193.13;10497154;28;20240;-63
2022/01/29 00:29:09;;;;;;;5.03;1.97;;;;;;;1.02;96.59;101208.38;10497511;28;20228;-60
2022/01/29 00:34:12;;;;;;;5.73;1.30;;;;;;;1.08;97.66;101199.31;10497345;28;20222;-66
2022/01/29 00:39:17;;;;;;;5.73;1.83;;;;;;;1.18;96.94;101198.88;10497134;28;20298;-64
2022/01/29 00:44:20;;;;;;;6.23;1.57;;;;;;;1.22;96.74;101202.41;10515992;28;20290;-64
2022/01/29 00:49:24;;;;;;;7.23;1.83;;;;;;;1.24;96.21;101203.38;10538930;28;20227;-64
2022/01/29 00:54:28;;;;;;;4.27;1.80;;;;;;;1.21;97.13;101203.22;10538479;28;20734;-64
2022/01/29 00:59:33;;;;;;;5.97;2.17;;;;;;;1.20;97.27;101201.47;10538698;28;20239;-62
2022/01/29 01:04:39;;;;;;;22.77;10.20;;;;;;;1.09;99.03;101192.50;10538242;28;20221;-64
2022/01/29 01:09:43;;;;;;;8.43;1.73;;;;;;;1.26;97.97;101195.75;10531860;28;20227;-65
2022/01/29 01:14:47;;;;;;;6.63;2.00;;;;;;;1.07;98.42;101184.75;10496580;28;20215;-63
2022/01/29 01:19:50;;;;;;;9.30;3.07;;;;;;;0.95;99.60;101174.03;10496108;28;20244;-65
2022/01/29 01:24:55;;;;;;;7.97;3.23;;;;;;;1.04;99.95;101181.22;10498643;28;20212;-64
2022/01/29 01:29:58;;;;;;;13.17;3.40;;;;;;;0.98;99.77;101173.31;10503709;28;20224;-63
2022/01/29 01:35:11;;;;;;;7.87;3.53;;;;;;;0.91;100.00;101173.88;10503470;28;20220;-65
2022/01/29 01:40:17;;;;;;;11.77;3.27;;;;;;;0.95;100.00;101175.72;10503634;28;20246;-68
2022/01/29 01:45:20;;;;;;;9.53;3.20;;;;;;;0.90;100.00;101172.09;10530282;28;20215;-67
2022/01/29 01:50:25;;;;;;;15.53;3.43;;;;;;;0.83;100.00;101157.31;10544771;28;20310;-68
2022/01/29 01:55:38;;;;;;;10.63;3.17;;;;;;;0.79;100.00;101146.16;10545030;28;20553;-65
2022/01/29 02:00:43;;;;;;;8.13;2.80;;;;;;;0.77;100.00;101157.09;10544550;28;20211;-68
2022/01/29 02:05:47;;;;;;;7.53;3.20;;;;;;;0.69;100.00;101158.47;10544329;28;20222;-65
2022/01/29 02:10:52;;;;;;;10.10;3.37;;;;;;;0.67;100.00;101160.06;10544260;28;20227;-68
2022/01/29 02:15:55;;;;;;;8.87;3.03;;;;;;;0.71;100.00;101156.81;10543910;28;20222;-66
2022/01/29 02:21:00;;;;;;;16.30;4.43;;;;;;;0.74;100.00;101145.06;10543612;28;20239;-64
2022/01/29 02:26:04;;;;;;;12.03;4.10;;;;;;;0.72;100.00;101158.59;10543566;28;20246;-66
2022/01/29 02:31:07;;;;;;;8.47;3.47;;;;;;;0.59;100.00;101157.19;10543121;28;20672;-66
2022/01/29 02:36:11;;;;;;;13.00;3.87;;;;;;;0.63;100.00;101168.41;10543054;28;20709;-65
2022/01/29 02:41:15;;;;;;;7.93;3.33;;;;;;;0.50;100.00;101166.16;10542879;28;20215;-67
2022/01/29 02:46:28;;;;;;;8.37;3.10;;;;;;;0.49;100.00;101154.19;10507115;28;20230;-65
2022/01/29 02:51:31;;;;;;;39.33;20.47;;;;;;;0.63;100.00;101158.19;10500708;28;20234;-65
2022/01/29 02:56:36;;;;;;;10.30;3.57;;;;;;;0.54;100.00;101157.78;10500281;28;20220;-68
2022/01/29 03:01:39;;;;;;;10.70;3.27;;;;;;;0.40;100.00;101161.47;10500086;28;20280;-64
2022/01/29 03:06:43;;;;;;;8.52;4.13;;;;;;;0.48;100.00;101162.66;10497660;28;20414;-64
2022/01/29 03:11:47;;;;;;;13.67;5.40;;;;;;;0.41;100.00;101160.66;10499510;28;20239;-64
2022/01/29 03:16:51;;;;;;;9.95;4.45;;;;;;;0.29;100.00;101153.34;10496858;28;20756;-67
2022/01/29 03:21:54;;;;;;;10.23;4.60;;;;;;;0.34;100.00;101158.63;10499235;28;20323;-66
2022/01/29 03:26:58;;;;;;;10.70;3.80;;;;;;;0.35;100.00;101155.25;10499014;28;20740;-62
2022/01/29 03:32:02;;;;;;;8.63;3.90;;;;;;;0.29;100.00;101157.56;10499079;28;20227;-65
2022/01/29 03:37:05;;;;;;;21.50;8.45;;;;;;;0.36;100.00;101144.25;10496123;28;20828;-65
2022/01/29 03:42:12;;;;;;;10.90;4.20;;;;;;;0.40;100.00;101153.81;10496090;28;20480;-65
2022/01/29 03:47:16;;;;;;;7.03;3.13;;;;;;;0.43;100.00;101157.34;10539890;28;20517;-64
2022/01/29 03:52:19;;;;;;;10.00;3.40;;;;;;;0.49;100.00;101164.38;10180362;28;10000350;-62
2022/01/29 03:57:24;;;;;;;7.47;3.23;;;;;;;0.36;100.00;101165.56;10501233;28;20202;-66
2022/01/29 04:02:27;;;;;;;12.00;3.47;;;;;;;0.32;100.00;101173.00;10501434;28;20222;-64
2022/01/29 04:07:31;;;;;;;9.85;3.80;;;;;;;0.41;100.00;101171.75;10497312;28;20398;-64
2022/01/29 04:12:41;;;;;;;9.23;3.03;;;;;;;0.41;100.00;101175.97;10497757;28;20216;-62
2022/01/29 04:17:44;;;;;;;11.60;5.03;;;;;;;0.32;100.00;101165.34;10497879;28;20600;-67
2022/01/29 04:22:47;;;;;;;8.00;3.20;;;;;;;0.43;100.00;101165.00;10496985;28;20588;-62
2022/01/29 04:27:52;;;;;;;12.63;5.70;;;;;;;0.36;100.00;101146.81;10494933;28;20823;-64
2022/01/29 04:33:02;;;;;;;11.63;4.10;;;;;;;0.26;100.00;101149.78;10494798;28;20505;-64
2022/01/29 04:38:05;;;;;;;8.57;3.30;;;;;;;0.26;100.00;101142.97;10497473;28;20198;-62
2022/01/29 04:43:10;;;;;;;8.00;2.90;;;;;;;0.31;100.00;101138.09;10147930;28;10000575;-64
2022/01/29 04:48:13;;;;;;;10.60;4.30;;;;;;;0.20;100.00;101135.06;10498048;28;20486;-63
2022/01/29 04:53:16;;;;;;;22.40;8.30;;;;;;;0.23;100.00;101134.31;10500045;28;20228;-63
2022/01/29 04:58:21;;;;;;;11.75;4.25;;;;;;;0.25;100.00;101136.13;10498812;28;20374;-62
2022/01/29 05:03:24;;;;;;;11.23;4.00;;;;;;;0.27;100.00;101129.44;10505454;28;20389;-61
2022/01/29 05:08:27;;;;;;;17.57;8.10;;;;;;;0.36;100.00;101128.94;10507700;28;20751;-64
2022/01/29 05:13:33;;;;;;;11.27;3.00;;;;;;;0.25;100.00;101131.03;10507734;28;20228;-62
2022/01/29 05:29:18;;;;;;;;;;;;;;;0.27;100.00;101109.00;10507741;28;20007;-61
2022/01/29 05:34:21;;;;;;;;;;;;;;;0.18;100.00;101111.16;10507384;28;19920;-63
2022/01/29 05:39:25;;;;;;;12.03;3.53;;;;;;;0.11;100.00;101103.16;10506970;28;20198;-65
2022/01/29 05:44:30;;;;;;;16.33;5.83;;;;;;;0.00;100.00;101098.47;10506526;28;20218;-64
2022/01/29 05:49:33;;;;;;;8.83;3.00;;;;;;;-0.11;100.00;101106.47;10506383;28;20540;-61
2022/01/29 05:54:36;;;;;;;7.53;3.00;;;;;;;0.02;100.00;101103.63;10505992;28;20308;-63
2022/01/29 05:59:40;;;;;;;8.17;2.97;;;;;;;0.02;100.00;101097.69;10505808;28;20303;-62
2022/01/29 06:04:44;;;;;;;11.03;3.03;;;;;;;-0.10;100.00;101098.88;10505344;28;20228;-62
2022/01/29 06:09:48;;;;;;;6.53;2.60;;;;;;;-0.22;100.00;101103.44;10504563;28;20238;-62
2022/01/29 06:14:52;;;;;;;11.53;3.50;;;;;;;-0.17;100.00;101098.53;10505119;28;20580;-62
2022/01/29 06:19:55;;;;;;;9.57;3.30;;;;;;;-0.18;100.00;101104.44;10504725;28;20224;-63
2022/01/29 06:24:59;;;;;;;10.60;3.63;;;;;;;-0.13;100.00;101098.75;10505137;28;20240;-61
2022/01/29 06:30:05;;;;;;;8.43;3.57;;;;;;;-0.08;100.00;101084.53;10504611;28;20311;-65
2022/01/29 06:35:09;;;;;;;12.07;3.83;;;;;;;0.03;100.00;101079.00;10505096;28;20236;-62
2022/01/29 06:40:13;;;;;;;13.97;3.17;;;;;;;0.13;100.00;101088.78;10504341;28;20220;-63
2022/01/29 06:45:17;;;;;;;8.93;2.53;;;;;;;0.12;100.00;101103.25;10504269;28;20218;-64
2022/01/29 06:50:21;;;;;;;11.83;4.73;;;;;;;0.00;100.00;101112.94;10503780;28;20235;-67
2022/01/29 06:55:24;;;;;;;10.43;3.37;;;;;;;0.01;100.00;101107.00;10503612;28;20622;-63
2022/01/29 07:00:29;;;;;;;10.57;3.43;;;;;;;0.09;100.00;101104.81;10504022;28;20234;-64
2022/01/29 07:05:32;;;;;;;11.60;3.57;;;;;;;0.23;100.00;101098.59;10503260;28;20223;-61
2022/01/29 07:10:37;;;;;;;9.13;3.50;;;;;;;0.28;100.00;101077.56;10502844;28;20242;-63
2022/01/29 07:15:41;;;;;;;11.53;3.40;;;;;;;0.35;100.00;101065.91;10502852;28;20670;-61
2022/01/29 07:20:46;;;;;;;9.60;3.03;;;;;;;0.41;100.00;101053.44;10502796;28;20250;-62
2022/01/29 07:25:49;;;;;;;10.87;3.87;;;;;;;0.24;100.00;101052.75;10501978;28;20530;-62
2022/01/29 07:30:53;;;;;;;8.97;3.40;;;;;;;0.20;100.00;101047.44;10502135;28;20550;-62
2022/01/29 07:35:57;;;;;;;13.13;3.60;;;;;;;0.21;100.00;101036.44;10502077;28;20221;-63
2022/01/29 07:41:00;;;;;;;10.33;3.50;;;;;;;0.25;100.00;101026.41;10502036;28;20216;-60
2022/01/29 07:46:05;;;;;;;8.23;3.10;;;;;;;0.22;100.00;101020.28;10501905;28;20216;-65
2022/01/29 07:51:08;;;;;;;9.23;3.53;;;;;;;0.28;100.00;101010.31;10501428;28;20224;-63
2022/01/29 07:56:11;;;;;;;8.27;3.73;;;;;;;0.31;100.00;101005.38;10501309;28;20227;-62
2022/01/29 08:01:16;;;;;;;11.63;3.57;;;;;;;0.40;100.00;100993.00;10501274;28;20222;-62
2022/01/29 08:06:22;;;;;;;10.57;3.63;;;;;;;0.44;100.00;100989.72;10501130;28;20216;-63
2022/01/29 08:11:26;;;;;;;9.87;3.37;;;;;;;0.47;100.00;100983.06;10501174;28;20642;-64
2022/01/29 08:16:30;;;;;;;12.67;3.50;;;;;;;0.44;100.00;100979.50;10500773;28;20226;-66
2022/01/29 08:21:34;;;;;;;8.87;3.47;;;;;;;0.56;100.00;100982.56;10500440;28;20244;-62
2022/01/29 08:26:38;;;;;;;11.63;3.97;;;;;;;0.74;100.00;100973.91;10500576;28;20220;-64
2022/01/29 08:31:42;;;;;;;14.60;4.17;;;;;;;0.89;100.00;100948.09;10500500;28;20228;-59
2022/01/29 08:36:46;;;;;;;8.53;3.90;;;;;;;0.91;100.00;100942.25;10500544;28;20224;-62
2022/01/29 08:41:49;;;;;;;10.63;4.10;;;;;;;1.01;100.00;100940.91;10500227;28;20684;-64
2022/01/29 08:46:53;;;;;;;16.27;4.77;;;;;;;1.18;100.00;100933.03;10492668;28;20216;-65
2022/01/29 08:51:57;;;;;;;14.87;4.57;;;;;;;1.13;100.00;100934.56;10499079;28;20542;-66
2022/01/29 08:57:00;;;;;;;11.73;5.60;;;;;;;1.30;100.00;100927.47;10499051;28;20204;-61
2022/01/29 09:02:05;;;;;;;16.27;5.10;;;;;;;1.54;100.00;100925.78;10498666;28;21450;-62
2022/01/29 09:07:09;;;;;;;14.93;5.33;;;;;;;1.60;100.00;100928.56;10143784;27;10000185;-66
2022/01/29 09:12:13;;;;;;;16.80;4.87;;;;;;;1.94;100.00;100916.09;10495533;28;20311;-64
2022/01/29 09:17:18;;;;;;;20.63;5.60;;;;;;;2.38;100.00;100900.47;10495827;28;20216;-62
2022/01/29 09:22:21;;;;;;;17.60;5.13;;;;;;;2.87;100.00;100909.63;10493811;28;20242;-64
2022/01/29 09:27:24;;;;;;;11.67;4.83;;;;;;;2.95;99.98;100900.47;10467598;28;20291;-62
2022/01/29 09:32:30;;;;;;;14.97;5.03;;;;;;;3.36;99.09;100889.69;10454618;28;20235;-64
2022/01/29 09:37:33;;;;;;;15.60;4.77;;;;;;;3.31;97.63;100875.88;10487882;28;20217;-65
2022/01/29 09:42:37;;;;;;;12.70;4.40;;;;;;;3.19;97.70;100878.94;10478945;28;20550;-66
2022/01/29 09:47:42;;;;;;;17.63;5.87;;;;;;;3.06;98.64;100865.75;10470651;28;20291;-66
2022/01/29 09:52:45;;;;;;;18.00;6.40;;;;;;;3.19;99.14;100845.59;10461584;28;20551;-64
2022/01/29 09:57:48;;;;;;;22.37;6.27;;;;;;;3.42;98.01;100828.25;10474605;28;20208;-66
2022/01/29 10:03:21;;;;;;;13.63;5.60;;;;;;;3.81;96.76;100805.31;10484650;28;20222;-63
2022/01/29 10:08:25;;;;;;;16.43;4.80;;;;;;;3.98;94.03;100802.31;10495486;28;20297;-63
2022/01/29 10:13:30;;;;;;;18.33;4.80;;;;;;;3.92;93.64;100785.91;10472776;28;20223;-62
2022/01/29 10:18:36;;;;;;;15.00;5.00;;;;;;;3.87;93.87;100772.94;10502036;28;20220;-66
2022/01/29 10:23:40;;;;;;;17.93;4.20;;;;;;;3.98;94.01;100765.47;10468056;28;20233;-65
2022/01/29 10:28:53;;;;;;;17.60;4.70;;;;;;;4.64;90.83;100739.50;10490120;28;20220;-63
2022/01/29 10:33:58;;;;;;;20.87;6.70;;;;;;;5.07;85.94;100735.19;10501152;28;20290;-65
2022/01/29 10:39:02;;;;;;;18.57;5.20;;;;;;;5.04;85.59;100712.81;10501097;28;20220;-66
2022/01/29 10:44:12;;;;;;;15.47;3.73;;;;;;;5.37;85.80;100697.09;10481689;28;20243;-63
2022/01/29 10:49:28;;;;;;;18.40;4.50;;;;;;;5.35;84.95;100684.19;10476984;28;20237;-63
2022/01/29 10:54:33;;;;;;;13.20;3.67;;;;;;;5.45;83.70;100660.31;10458756;28;20286;-64
2022/01/29 10:59:39;;;;;;;22.40;4.77;;;;;;;5.10;83.86;100658.94;10141764;28;10000645;-64
2022/01/29 11:04:44;;;;;;;15.67;4.23;;;;;;;5.13;83.73;100646.09;10502923;28;20228;-64
2022/01/29 11:09:50;;;;;;;18.33;4.07;;;;;;;5.49;83.30;100644.09;10502778;28;20199;-62
2022/01/29 11:14:55;;;;;;;20.07;4.80;;;;;;;5.31;82.50;100622.38;10502721;28;20549;-66
2022/01/29 11:20:00;;;;;;;16.70;4.83;;;;;;;5.24;81.84;100615.41;10502640;28;20638;-65
2022/01/29 11:25:06;;;;;;;20.00;4.67;;;;;;;5.21;82.66;100597.38;10502775;28;20225;-65
2022/01/29 11:30:14;;;;;;;19.17;4.90;;;;;;;5.18;83.10;100587.00;10502298;28;20222;-63
2022/01/29 11:35:21;;;;;;;20.23;5.30;;;;;;;5.03;82.79;100577.38;10502201;28;20220;-66
2022/01/29 11:40:30;;;;;;;15.43;4.17;;;;;;;4.87;84.22;100571.97;10502020;28;20576;-62
2022/01/29 11:45:54;;;;;;;15.70;5.17;;;;;;;4.73;83.92;100552.03;10501539;28;20652;-63
2022/01/29 11:51:00;;;;;;;15.33;4.80;;;;;;;4.73;83.68;100541.75;10501319;28;20191;-65
2022/01/29 11:56:27;;;;;;;13.57;4.03;;;;;;;4.87;82.85;100520.53;10501409;28;20200;-63
2022/01/29 12:01:31;;;;;;;18.43;4.83;;;;;;;4.95;83.25;100516.38;10501016;28;20618;-63
2022/01/29 12:06:58;;;;;;;29.87;12.90;;;;;;;4.99;83.03;100497.59;10501051;28;20580;-64
2022/01/29 12:12:16;;;;;;;17.47;6.23;;;;;;;4.73;84.48;100490.31;10500240;28;20229;-62
2022/01/29 12:17:41;;;;;;;23.10;4.90;;;;;;;4.85;85.83;100481.09;10500804;28;20230;-62
2022/01/29 12:22:46;;;;;;;14.93;5.07;;;;;;;4.51;87.96;100465.16;10500445;28;20239;-61
2022/01/29 12:27:51;;;;;;;23.87;6.27;;;;;;;4.56;89.66;100460.06;10500599;28;20212;-61
2022/01/29 12:32:56;;;;;;;20.43;5.73;;;;;;;4.58;90.63;100446.41;10500328;28;20306;-65
2022/01/29 12:38:00;;;;;;;16.67;5.30;;;;;;;4.43;92.53;100447.88;10500290;28;20192;-63
2022/01/29 12:43:11;;;;;;;16.53;5.40;;;;;;;4.28;94.38;100420.22;10500018;28;20200;-63
2022/01/29 12:48:15;;;;;;;23.77;6.83;;;;;;;4.07;97.72;100401.91;10494488;28;20218;-67
2022/01/29 12:53:21;;;;;;;18.03;6.53;;;;;;;3.97;100.00;100387.19;10499130;28;20231;-65
2022/01/29 12:58:28;;;;;;;24.83;7.37;;;;;;;3.86;100.00;100377.59;10492113;28;20291;-68
2022/01/29 13:03:32;;;;;;;18.77;5.47;;;;;;;3.86;100.00;100365.63;10481947;28;20191;-62
2022/01/29 13:08:37;;;;;;;17.10;6.27;;;;;;;3.60;100.00;100337.78;10499931;28;20249;-66
2022/01/29 13:13:41;;;;;;;20.07;5.97;;;;;;;3.37;100.00;100345.94;10478681;28;20231;-67
2022/01/29 13:18:44;;;;;;;16.43;6.20;;;;;;;3.38;100.00;100324.56;10482368;28;20196;-63
2022/01/29 13:23:49;;;;;;;18.97;6.67;;;;;;;3.28;100.00;100312.44;10486468;28;20637;-64
2022/01/29 13:28:59;;;;;;;16.60;6.43;;;;;;;3.14;100.00;100300.22;10489688;28;20211;-64
2022/01/29 13:34:04;;;;;;;22.63;7.80;;;;;;;3.10;100.00;100289.03;10465434;28;20277;-66
2022/01/29 13:39:10;;;;;;;24.40;7.03;;;;;;;3.10;100.00;100280.47;10465008;28;20185;-61
2022/01/29 13:44:13;;;;;;;21.60;6.13;;;;;;;3.08;100.00;100261.63;10469633;28;20196;-63
2022/01/29 13:49:30;;;;;;;21.37;7.67;;;;;;;3.13;100.00;100249.75;10474509;28;20310;-62
2022/01/29 13:54:34;;;;;;;16.50;6.87;;;;;;;3.02;100.00;100223.09;10479285;28;20248;-67
2022/01/29 13:59:39;;;;;;;15.10;5.97;;;;;;;2.88;100.00;100207.44;10505537;28;20212;-64
2022/01/29 14:04:45;;;;;;;24.60;6.30;;;;;;;2.84;100.00;100200.53;10506699;28;20228;-65
2022/01/29 14:09:55;;;;;;;17.47;6.37;;;;;;;2.81;100.00;100190.25;10498677;28;20221;-64
2022/01/29 14:14:59;;;;;;;19.03;6.73;;;;;;;2.80;100.00;100185.06;10467210;28;20239;-68
2022/01/29 14:20:05;;;;;;;18.43;6.63;;;;;;;2.83;100.00;100173.19;10485521;28;20319;-62
2022/01/29 14:25:11;;;;;;;22.37;8.00;;;;;;;2.76;100.00;100158.53;10483009;28;20217;-61
2022/01/29 14:30:15;;;;;;;21.20;7.47;;;;;;;2.72;100.00;100132.84;10463414;28;20304;-63
2022/01/29 14:35:19;;;;;;;17.67;6.00;;;;;;;2.67;100.00;100131.91;10479189;28;20228;-64
2022/01/29 14:40:24;;;;;;;15.33;7.43;;;;;;;2.66;100.00;100092.59;10477581;28;20615;-63
2022/01/29 14:45:28;;;;;;;12.50;5.90;;;;;;;2.59;100.00;100074.56;10491498;28;20220;-62
2022/01/29 14:50:31;;;;;;;15.90;6.30;;;;;;;2.52;100.00;100052.25;10485428;28;20215;-60
2022/01/29 14:55:36;;;;;;;18.93;6.60;;;;;;;2.48;100.00;100032.53;10482677;28;20229;-65
2022/01/29 15:00:39;;;;;;;26.40;11.87;;;;;;;2.31;100.00;100038.22;10468306;28;20292;-66
2022/01/29 15:05:43;;;;;;;14.27;6.97;;;;;;;2.38;100.00;100022.97;10481164;28;20216;-63
2022/01/29 15:10:47;;;;;;;15.60;7.17;;;;;;;2.24;100.00;100010.78;10479947;28;20223;-62
2022/01/29 15:15:50;;;;;;;16.53;5.97;;;;;;;2.04;100.00;100001.91;10461379;28;20220;-64
2022/01/29 15:20:54;;;;;;;11.17;5.70;;;;;;;2.04;100.00;99993.34;10134255;27;10000234;-60
2022/01/29 15:25:58;;;;;;;19.20;6.37;;;;;;;2.01;100.00;99986.50;10486380;28;20220;-62
2022/01/29 15:31:02;;;;;;;39.93;20.37;;;;;;;1.97;100.00;99982.16;10457956;28;20221;-62
2022/01/29 15:36:07;;;;;;;15.27;7.03;;;;;;;1.95;100.00;99962.50;10466690;28;20668;-64
2022/01/29 15:41:12;;;;;;;14.20;6.43;;;;;;;1.87;100.00;99962.38;10498643;28;20208;-62
2022/01/29 15:46:15;;;;;;;13.90;6.13;;;;;;;1.93;100.00;99952.22;10131108;28;10000148;-64
2022/01/29 15:51:18;;;;;;;16.77;7.13;;;;;;;1.87;100.00;99935.91;10471188;28;20250;-64
2022/01/29 15:56:23;;;;;;;32.47;16.10;;;;;;;1.83;100.00;99922.22;10476446;28;20232;-66
2022/01/29 16:01:28;;;;;;;13.67;6.50;;;;;;;1.82;100.00;99897.47;10510205;28;20239;-61
2022/01/29 16:06:32;;;;;;;14.03;6.40;;;;;;;1.76;100.00;99891.41;10487829;28;20224;-60
2022/01/29 16:11:37;;;;;;;12.63;6.07;;;;;;;1.67;100.00;99874.19;10500872;28;20224;-62
2022/01/29 16:16:40;;;;;;;13.67;6.23;;;;;;;1.60;100.00;99861.28;10501067;28;20560;-61
2022/01/29 16:21:44;;;;;;;11.73;5.57;;;;;;;1.56;100.00;99842.44;10497768;28;20689;-65
2022/01/29 16:26:48;;;;;;;12.60;5.77;;;;;;;1.43;100.00;99806.44;10491129;28;20224;-64
2022/01/29 16:31:51;;;;;;;14.40;6.77;;;;;;;1.41;100.00;99785.97;10461063;28;20225;-62
2022/01/29 16:36:55;;;;;;;34.67;17.27;;;;;;;1.44;100.00;99765.56;10500341;28;20303;-65
2022/01/29 16:41:59;;;;;;;14.17;7.30;;;;;;;1.41;100.00;99747.63;10500481;28;20601;-65
2022/01/29 16:47:04;;;;;;;14.33;6.57;;;;;;;1.45;100.00;99721.25;10490557;28;20665;-64
2022/01/29 16:52:08;;;;;;;11.93;6.70;;;;;;;1.47;100.00;99701.69;10491333;28;20549;-62
2022/01/29 16:57:12;;;;;;;10.53;5.77;;;;;;;1.63;100.00;99690.00;10489099;28;20220;-65
2022/01/29 17:02:17;;;;;;;10.90;6.00;;;;;;;1.57;100.00;99682.25;10474295;28;20660;-62
2022/01/29 17:07:20;;;;;;;11.80;6.80;;;;;;;1.62;100.00;99657.59;10490135;28;20266;-64
2022/01/29 17:12:25;;;;;;;11.20;5.53;;;;;;;1.72;100.00;99650.06;10481347;28;20196;-63
2022/01/29 17:17:28;;;;;;;15.07;7.70;;;;;;;1.84;100.00;99634.88;10484074;28;20221;-63
2022/01/29 17:22:31;;;;;;;9.70;4.77;;;;;;;1.98;100.00;99602.66;10493286;28;20228;-63
2022/01/29 17:27:36;;;;;;;12.13;5.90;;;;;;;2.08;100.00;99609.59;10465881;28;20299;-63
2022/01/29 17:32:49;;;;;;;10.60;4.97;;;;;;;2.15;100.00;99585.78;10482749;28;20676;-63
2022/01/29 17:37:53;;;;;;;10.03;4.93;;;;;;;2.22;100.00;99581.59;10473571;28;20205;-62
2022/01/29 17:42:59;;;;;;;7.23;3.77;;;;;;;2.25;100.00;99567.13;10465466;28;20291;-64
2022/01/29 17:48:02;;;;;;;10.43;4.50;;;;;;;2.28;100.00;99553.47;10465188;28;20232;-61
2022/01/29 17:53:08;;;;;;;12.23;6.57;;;;;;;2.31;100.00;99540.75;10484349;28;20196;-61
2022/01/29 17:58:18;;;;;;;9.27;4.73;;;;;;;2.31;100.00;99521.09;10498172;28;20275;-66
2022/01/29 18:03:21;;;;;;;35.87;16.33;;;;;;;2.34;100.00;99502.34;10480500;28;20196;-62
2022/01/29 18:08:25;;;;;;;17.63;8.73;;;;;;;2.40;100.00;99481.09;10494797;28;20213;-61
2022/01/29 18:13:29;;;;;;;24.90;13.10;;;;;;;2.48;100.00;99470.06;10481357;28;20230;-66
2022/01/29 18:18:33;;;;;;;8.97;3.70;;;;;;;2.50;100.00;99458.13;10491468;28;20231;-63
2022/01/29 18:23:37;;;;;;;8.27;4.13;;;;;;;2.44;100.00;99439.28;10488278;28;20247;-64
2022/01/29 18:28:42;;;;;;;9.60;4.33;;;;;;;2.46;100.00;99419.66;10494650;28;20228;-61
2022/01/29 18:33:49;;;;;;;8.43;3.73;;;;;;;2.50;100.00;99403.47;10504517;28;20550;-61
2022/01/29 18:38:53;;;;;;;5.63;3.10;;;;;;;2.45;100.00;99379.56;10504395;28;20596;-60
2022/01/29 18:43:57;;;;;;;8.90;3.97;;;;;;;2.54;100.00;99369.38;10497360;28;20235;-63
2022/01/29 18:49:02;;;;;;;7.07;3.80;;;;;;;2.63;100.00;99354.91;10489335;28;20240;-65
2022/01/29 18:54:05;;;;;;;6.73;3.93;;;;;;;2.66;100.00;99357.47;10471572;28;20239;-62
2022/01/29 18:59:09;;;;;;;6.73;3.40;;;;;;;2.66;100.00;99323.34;10494973;28;20247;-62
2022/01/29 19:04:12;;;;;;;18.50;9.33;;;;;;;2.70;100.00;99307.97;10495468;28;20217;-62
2022/01/29 19:09:18;;;;;;;10.23;4.03;;;;;;;2.76;100.00;99284.94;10496000;28;20216;-62
2022/01/29 19:14:22;;;;;;;7.17;3.80;;;;;;;2.79;100.00;99268.75;10502560;28;20224;-64
2022/01/29 19:19:30;;;;;;;6.30;3.23;;;;;;;2.84;100.00;99267.91;10492394;28;20607;-64
2022/01/29 19:24:34;;;;;;;9.67;4.53;;;;;;;2.93;100.00;99255.13;10468022;28;20224;-62
2022/01/29 19:29:38;;;;;;;6.90;3.60;;;;;;;2.95;100.00;99235.47;10460946;28;20231;-65
2022/01/29 19:34:41;;;;;;;7.50;3.73;;;;;;;3.02;100.00;99226.09;10459394;28;20341;-66
2022/01/29 19:39:45;;;;;;;7.67;4.40;;;;;;;3.06;100.00;99214.97;10489332;28;20720;-63
2022/01/29 19:44:50;;;;;;;9.20;4.67;;;;;;;3.12;100.00;99192.78;10498370;28;20220;-64
2022/01/29 19:49:53;;;;;;;16.17;9.60;;;;;;;3.22;100.00;99183.41;10487501;28;20282;-64
2022/01/29 19:54:58;;;;;;;9.37;6.03;;;;;;;3.28;100.00;99165.44;10460308;28;20232;-62
2022/01/29 20:00:06;;;;;;;11.43;7.30;;;;;;;3.49;100.00;99155.16;10474762;28;20316;-64
2022/01/29 20:05:09;;;;;;;10.80;5.70;;;;;;;3.57;100.00;99137.22;10492595;28;20545;-67
2022/01/29 20:10:16;;;;;;;9.93;6.37;;;;;;;3.65;100.00;99127.78;10492002;28;20219;-64
2022/01/29 20:15:20;;;;;;;11.40;6.37;;;;;;;3.68;100.00;99108.09;10497514;28;20667;-64
2022/01/29 20:20:24;;;;;;;10.60;6.30;;;;;;;3.72;100.00;99088.41;10493985;28;20232;-63
2022/01/29 20:25:29;;;;;;;8.37;5.63;;;;;;;3.75;100.00;99061.03;10499698;28;20250;-66
2022/01/29 20:30:35;;;;;;;9.53;5.00;;;;;;;3.82;100.00;99049.91;10491493;28;20208;-65
2022/01/29 20:35:39;;;;;;;11.17;4.87;;;;;;;3.79;100.00;99043.94;10492104;28;20710;-66
2022/01/29 20:40:47;;;;;;;11.83;5.90;;;;;;;3.82;100.00;99026.81;10486706;28;20277;-64
2022/01/29 20:45:52;;;;;;;8.67;5.20;;;;;;;3.92;100.00;99012.22;10476293;28;20216;-63
2022/01/29 20:50:55;;;;;;;9.10;5.70;;;;;;;4.00;100.00;98998.50;10491776;28;20227;-65
2022/01/29 20:56:00;;;;;;;8.40;4.50;;;;;;;4.03;100.00;98970.22;10497128;28;20619;-62
2022/01/29 21:01:05;;;;;;;9.57;5.40;;;;;;;4.09;100.00;98989.88;10499181;28;20679;-68
2022/01/29 21:06:08;;;;;;;9.17;5.17;;;;;;;4.14;100.00;98935.06;10484338;28;20228;-65
2022/01/29 21:11:12;;;;;;;8.83;4.90;;;;;;;4.17;100.00;98950.47;10480738;28;20662;-66
2022/01/29 21:16:17;;;;;;;51.83;23.20;;;;;;;4.41;100.00;98916.88;10483739;28;20243;-65
2022/01/29 21:21:20;;;;;;;7.83;5.07;;;;;;;4.45;100.00;98925.41;10499559;28;20365;-63
2022/01/29 21:26:23;;;;;;;8.57;4.83;;;;;;;4.46;100.00;98886.88;10473917;28;20193;-64
2022/01/29 21:31:28;;;;;;;8.70;4.37;;;;;;;4.47;100.00;98903.97;10493310;28;20279;-63
2022/01/29 21:36:31;;;;;;;11.97;6.27;;;;;;;4.54;100.00;98889.34;10486138;28;20235;-65
2022/01/29 21:41:34;;;;;;;6.50;3.70;;;;;;;4.61;100.00;98849.88;10472334;28;20192;-64
2022/01/29 21:46:39;;;;;;;7.50;3.67;;;;;;;4.59;100.00;98815.66;10506550;28;20641;-66
2022/01/29 21:51:42;;;;;;;7.80;3.87;;;;;;;4.53;100.00;98814.00;10506536;28;20196;-64
2022/01/29 21:56:47;;;;;;;6.97;3.30;;;;;;;4.58;100.00;98803.69;10506281;28;20212;-64
2022/01/29 22:01:54;;;;;;;7.77;3.87;;;;;;;4.59;100.00;98767.69;10506062;28;20198;-63
2022/01/29 22:06:57;;;;;;;6.67;3.57;;;;;;;4.62;100.00;98765.06;10506290;28;20291;-69
2022/01/29 22:12:01;;;;;;;5.97;3.40;;;;;;;4.68;100.00;98738.47;10479872;28;20311;-68
2022/01/29 22:17:06;;;;;;;6.83;3.80;;;;;;;4.80;100.00;98728.03;10469555;28;20674;-65
2022/01/29 22:22:09;;;;;;;9.27;3.93;;;;;;;4.82;100.00;98720.28;10463633;28;20232;-63
2022/01/29 22:27:14;;;;;;;6.93;4.00;;;;;;;4.92;100.00;98702.16;10504099;28;20220;-65
2022/01/29 22:32:19;;;;;;;7.47;4.70;;;;;;;5.01;100.00;98701.16;10504831;28;20220;-65
2022/01/29 22:37:23;;;;;;;8.87;4.40;;;;;;;5.06;100.00;98671.09;10504749;28;20230;-65
2022/01/29 22:42:27;;;;;;;9.80;5.10;;;;;;;5.13;100.00;98662.41;10504250;28;20228;-63
2022/01/29 22:47:31;;;;;;;12.17;5.30;;;;;;;5.23;100.00;98661.44;10469199;28;20224;-64
2022/01/29 22:52:36;;;;;;;8.03;4.83;;;;;;;5.25;100.00;98621.06;10462482;28;20658;-63
2022/01/29 22:57:39;;;;;;;8.97;5.13;;;;;;;5.36;100.00;98604.59;10462311;28;20237;-63
2022/01/29 23:02:44;;;;;;;9.57;6.13;;;;;;;5.47;100.00;98600.09;10462342;28;20235;-62
2022/01/29 23:07:48;;;;;;;10.23;5.90;;;;;;;5.48;100.00;98585.53;10462204;28;20224;-65
2022/01/29 23:12:58;;;;;;;7.40;4.13;;;;;;;5.57;100.00;98582.78;10485428;28;20212;-63
2022/01/29 23:18:03;;;;;;;7.63;4.87;;;;;;;5.75;100.00;98566.97;10490719;28;20223;-65
2022/01/29 23:23:14;;;;;;;8.47;4.80;;;;;;;5.76;100.00;98555.81;10143728;27;10000027;-64
2022/01/29 23:28:33;;;;;;;9.47;4.50;;;;;;;5.87;100.00;98547.94;10541325;28;20229;-65
2022/01/29 23:34:12;;;;;;;8.23;4.67;;;;;;;5.95;100.00;98520.28;10522670;28;20218;-67